sensor_id;sensor_type;location;lat;lon;timestamp;pressure;altitude;pressure_sealevel;temperature;humidity
23417;BME280;11881;42.432;25.632;2024-01-10T00:01:55;100505.19;;;-0.85;65.75
23417;BME280;11881;42.432;25.632;2024-01-10T00:04:20;100506.97;;;-1.24;62.88
23417;BME280;11881;42.432;25.632;2024-01-10T00:06:46;100516.50;;;-1.21;63.08
23417;BME280;11881;42.432;25.632;2024-01-10T00:09:11;100505.72;;;-1.08;63.24
23417;BME280;11881;42.432;25.632;2024-01-10T00:11:37;100525.25;;;-1.24;65.19
23417;BME280;11881;42.432;25.632;2024-01-10T00:14:03;100519.13;;;-1.21;63.45
23417;BME280;11881;42.432;25.632;2024-01-10T00:16:29;100524.56;;;-1.30;62.72
23417;BME280;11881;42.432;25.632;2024-01-10T00:18:55;100518.63;;;-1.00;62.27
23417;BME280;11881;42.432;25.632;2024-01-10T00:21:20;100527.38;;;-1.01;61.41
23417;BME280;11881;42.432;25.632;2024-01-10T00:23:46;100527.69;;;-1.16;63.41
23417;BME280;11881;42.432;25.632;2024-01-10T00:26:11;100522.13;;;-1.38;63.05
23417;BME280;11881;42.432;25.632;2024-01-10T00:28:37;100524.50;;;-1.27;63.50
23417;BME280;11881;42.432;25.632;2024-01-10T00:31:02;100526.69;;;-1.09;61.21
23417;BME280;11881;42.432;25.632;2024-01-10T00:33:28;100530.94;;;-1.05;62.60
23417;BME280;11881;42.432;25.632;2024-01-10T00:35:53;100534.94;;;-1.27;60.58
23417;BME280;11881;42.432;25.632;2024-01-10T00:38:19;100532.44;;;-1.34;61.94
23417;BME280;11881;42.432;25.632;2024-01-10T00:40:44;100534.34;;;-1.40;61.66
23417;BME280;11881;42.432;25.632;2024-01-10T00:43:10;100531.56;;;-1.32;61.05
23417;BME280;11881;42.432;25.632;2024-01-10T00:45:35;100532.81;;;-1.10;60.86
23417;BME280;11881;42.432;25.632;2024-01-10T00:48:01;100543.84;;;-1.36;59.97
23417;BME280;11881;42.432;25.632;2024-01-10T00:50:26;100541.94;;;-1.29;59.34
23417;BME280;11881;42.432;25.632;2024-01-10T00:52:52;100551.81;;;-1.42;59.31
23417;BME280;11881;42.432;25.632;2024-01-10T00:55:17;100541.94;;;-1.29;61.53
23417;BME280;11881;42.432;25.632;2024-01-10T00:57:43;100546.47;;;-0.99;59.93
23417;BME280;11881;42.432;25.632;2024-01-10T01:00:09;100545.38;;;-1.26;59.34
23417;BME280;11881;42.432;25.632;2024-01-10T01:02:36;100541.94;;;-1.29;59.95
23417;BME280;11881;42.432;25.632;2024-01-10T01:05:02;100535.00;;;-1.30;59.94
23417;BME280;11881;42.432;25.632;2024-01-10T01:07:28;100536.31;;;-1.50;58.15
23417;BME280;11881;42.432;25.632;2024-01-10T01:09:53;100533.38;;;-1.36;57.17
23417;BME280;11881;42.432;25.632;2024-01-10T01:12:19;100538.22;;;-1.59;58.73
23417;BME280;11881;42.432;25.632;2024-01-10T01:14:44;100536.25;;;-1.48;57.20
23417;BME280;11881;42.432;25.632;2024-01-10T01:17:10;100534.97;;;-1.29;58.34
23417;BME280;11881;42.432;25.632;2024-01-10T01:19:35;100529.63;;;-1.24;58.10
23417;BME280;11881;42.432;25.632;2024-01-10T01:22:01;100530.13;;;-1.47;59.14
23417;BME280;11881;42.432;25.632;2024-01-10T01:24:26;100523.81;;;-1.37;57.83
23417;BME280;11881;42.432;25.632;2024-01-10T01:26:52;100530.91;;;-1.42;57.06
23417;BME280;11881;42.432;25.632;2024-01-10T01:29:18;100528.06;;;-1.31;58.92
23417;BME280;11881;42.432;25.632;2024-01-10T01:31:44;100518.03;;;-1.13;57.59
23417;BME280;11881;42.432;25.632;2024-01-10T01:34:09;100526.97;;;-1.21;56.83
23417;BME280;11881;42.432;25.632;2024-01-10T01:36:35;100518.97;;;-1.54;55.28
23417;BME280;11881;42.432;25.632;2024-01-10T01:39:00;100530.91;;;-1.42;53.88
23417;BME280;11881;42.432;25.632;2024-01-10T01:41:26;100521.88;;;-1.29;58.26
23417;BME280;11881;42.432;25.632;2024-01-10T01:43:51;100523.88;;;-1.40;57.51
23417;BME280;11881;42.432;25.632;2024-01-10T01:46:17;100524.81;;;-1.43;57.33
23417;BME280;11881;42.432;25.632;2024-01-10T01:48:43;100521.75;;;-1.62;54.42
23417;BME280;11881;42.432;25.632;2024-01-10T01:51:09;100522.47;;;-1.55;56.70
23417;BME280;11881;42.432;25.632;2024-01-10T01:53:36;100520.13;;;-1.67;56.89
23417;BME280;11881;42.432;25.632;2024-01-10T01:56:06;100520.53;;;-1.47;55.96
23417;BME280;11881;42.432;25.632;2024-01-10T01:58:32;100518.09;;;-1.54;55.85
23417;BME280;11881;42.432;25.632;2024-01-10T02:00:59;100515.19;;;-1.41;56.83
23417;BME280;11881;42.432;25.632;2024-01-10T02:03:26;100510.22;;;-1.53;57.85
23417;BME280;11881;42.432;25.632;2024-01-10T02:05:52;100516.47;;;-1.60;55.41
23417;BME280;11881;42.432;25.632;2024-01-10T02:08:18;100506.28;;;-1.72;57.00
23417;BME280;11881;42.432;25.632;2024-01-10T02:10:44;100503.41;;;-1.60;56.01
23417;BME280;11881;42.432;25.632;2024-01-10T02:13:09;100513.94;;;-1.65;56.06
23417;BME280;11881;42.432;25.632;2024-01-10T02:15:37;100513.72;;;-1.54;56.20
23417;BME280;11881;42.432;25.632;2024-01-10T02:18:03;100502.25;;;-1.47;56.61
23417;BME280;11881;42.432;25.632;2024-01-10T02:20:31;100511.03;;;-1.49;55.68
23417;BME280;11881;42.432;25.632;2024-01-10T02:22:57;100505.50;;;-1.77;54.70
23417;BME280;11881;42.432;25.632;2024-01-10T02:25:22;100506.19;;;-1.68;57.42
23417;BME280;11881;42.432;25.632;2024-01-10T02:27:48;100506.59;;;-1.88;56.92
23417;BME280;11881;42.432;25.632;2024-01-10T02:30:13;100497.59;;;-1.74;55.16
23417;BME280;11881;42.432;25.632;2024-01-10T02:32:40;100509.97;;;-1.82;56.91
23417;BME280;11881;42.432;25.632;2024-01-10T02:35:06;100508.91;;;-1.72;57.69
23417;BME280;11881;42.432;25.632;2024-01-10T02:37:32;100514.16;;;-1.34;57.87
23417;BME280;11881;42.432;25.632;2024-01-10T02:39:57;100500.59;;;-1.12;58.31
23417;BME280;11881;42.432;25.632;2024-01-10T02:42:23;100505.50;;;-1.36;54.94
23417;BME280;11881;42.432;25.632;2024-01-10T02:44:48;100500.31;;;-1.79;55.72
23417;BME280;11881;42.432;25.632;2024-01-10T02:47:14;100498.44;;;-1.72;54.99
23417;BME280;11881;42.432;25.632;2024-01-10T02:49:40;100498.59;;;-1.40;58.53
23417;BME280;11881;42.432;25.632;2024-01-10T02:52:05;100499.78;;;-1.53;57.17
23417;BME280;11881;42.432;25.632;2024-01-10T02:54:31;100505.53;;;-1.37;57.23
23417;BME280;11881;42.432;25.632;2024-01-10T02:56:57;100503.28;;;-1.54;55.55
23417;BME280;11881;42.432;25.632;2024-01-10T02:59:22;100496.34;;;-1.55;56.70
23417;BME280;11881;42.432;25.632;2024-01-10T03:01:48;100486.91;;;-1.62;55.42
23417;BME280;11881;42.432;25.632;2024-01-10T03:04:13;100494.34;;;-1.44;57.26
23417;BME280;11881;42.432;25.632;2024-01-10T03:06:39;100496.81;;;-1.78;55.97
23417;BME280;11881;42.432;25.632;2024-01-10T03:09:04;100499.00;;;-1.58;57.46
23417;BME280;11881;42.432;25.632;2024-01-10T03:11:30;100500.94;;;-1.66;56.00
23417;BME280;11881;42.432;25.632;2024-01-10T03:14:07;100501.19;;;-1.78;56.00
23417;BME280;11881;42.432;25.632;2024-01-10T03:16:34;100497.75;;;-1.82;55.93
23417;BME280;11881;42.432;25.632;2024-01-10T03:19:00;100501.59;;;-1.56;56.22
23417;BME280;11881;42.432;25.632;2024-01-10T03:21:25;100498.81;;;-1.49;55.92
23417;BME280;11881;42.432;25.632;2024-01-10T03:23:55;100490.03;;;-1.45;56.38
23417;BME280;11881;42.432;25.632;2024-01-10T03:26:21;100498.09;;;-1.55;57.12
23417;BME280;11881;42.432;25.632;2024-01-10T03:28:47;100497.88;;;-1.45;56.88
23417;BME280;11881;42.432;25.632;2024-01-10T03:31:13;100501.06;;;-1.72;56.25
23417;BME280;11881;42.432;25.632;2024-01-10T03:33:38;100496.09;;;-1.44;55.75
23417;BME280;11881;42.432;25.632;2024-01-10T03:36:05;100492.72;;;-1.49;57.14
23417;BME280;11881;42.432;25.632;2024-01-10T03:38:30;100501.53;;;-1.53;55.42
23417;BME280;11881;42.432;25.632;2024-01-10T03:40:56;100499.25;;;-1.30;56.38
23417;BME280;11881;42.432;25.632;2024-01-10T03:43:22;100494.50;;;-1.50;54.95
23417;BME280;11881;42.432;25.632;2024-01-10T03:45:47;100502.59;;;-1.62;54.38
23417;BME280;11881;42.432;25.632;2024-01-10T03:48:13;100496.47;;;-1.63;56.06
23417;BME280;11881;42.432;25.632;2024-01-10T03:50:38;100495.63;;;-1.63;56.44
23417;BME280;11881;42.432;25.632;2024-01-10T03:53:04;100501.78;;;-1.66;56.90
23417;BME280;11881;42.432;25.632;2024-01-10T03:55:29;100496.16;;;-1.47;56.35
23417;BME280;11881;42.432;25.632;2024-01-10T03:57:56;100496.59;;;-1.69;56.39
23417;BME280;11881;42.432;25.632;2024-01-10T04:00:21;100505.66;;;-1.43;57.10
23417;BME280;11881;42.432;25.632;2024-01-10T04:02:47;100501.78;;;-1.66;55.35
23417;BME280;11881;42.432;25.632;2024-01-10T04:05:12;100504.91;;;-1.48;56.25
23417;BME280;11881;42.432;25.632;2024-01-10T04:07:42;100515.28;;;-1.45;55.28
23417;BME280;11881;42.432;25.632;2024-01-10T04:10:09;100513.63;;;-1.49;55.19
23417;BME280;11881;42.432;25.632;2024-01-10T04:12:38;100514.50;;;-1.49;56.34
23417;BME280;11881;42.432;25.632;2024-01-10T04:15:04;100515.25;;;-1.44;56.10
23417;BME280;11881;42.432;25.632;2024-01-10T04:17:30;100510.00;;;-1.42;55.66
23417;BME280;11881;42.432;25.632;2024-01-10T04:19:56;100505.56;;;-1.39;55.70
23417;BME280;11881;42.432;25.632;2024-01-10T04:22:23;100511.38;;;-1.66;54.83
23417;BME280;11881;42.432;25.632;2024-01-10T04:24:49;100509.84;;;-1.76;55.59
23417;BME280;11881;42.432;25.632;2024-01-10T04:27:14;100521.22;;;-1.80;56.85
23417;BME280;11881;42.432;25.632;2024-01-10T04:29:40;100512.63;;;-1.84;56.08
23417;BME280;11881;42.432;25.632;2024-01-10T04:32:06;100518.63;;;-1.80;55.36
23417;BME280;11881;42.432;25.632;2024-01-10T04:34:31;100517.72;;;-1.78;54.97
23417;BME280;11881;42.432;25.632;2024-01-10T04:36:57;100528.03;;;-1.72;56.09
23417;BME280;11881;42.432;25.632;2024-01-10T04:39:22;100519.22;;;-1.66;56.01
23417;BME280;11881;42.432;25.632;2024-01-10T04:41:48;100519.31;;;-1.71;55.72
23417;BME280;11881;42.432;25.632;2024-01-10T04:44:14;100521.75;;;-1.63;55.81
23417;BME280;11881;42.432;25.632;2024-01-10T04:46:39;100524.22;;;-1.57;55.11
23417;BME280;11881;42.432;25.632;2024-01-10T04:49:06;100524.53;;;-1.71;57.43
23417;BME280;11881;42.432;25.632;2024-01-10T04:51:32;100535.28;;;-1.43;55.45
23417;BME280;11881;42.432;25.632;2024-01-10T04:53:57;100542.88;;;-1.32;54.84
23417;BME280;11881;42.432;25.632;2024-01-10T04:56:23;100544.56;;;-1.29;53.93
23417;BME280;11881;42.432;25.632;2024-01-10T04:58:48;100539.56;;;-1.39;55.67
23417;BME280;11881;42.432;25.632;2024-01-10T05:01:14;100542.38;;;-1.49;55.78
23417;BME280;11881;42.432;25.632;2024-01-10T05:03:40;100554.34;;;-1.38;57.95
23417;BME280;11881;42.432;25.632;2024-01-10T05:06:05;100558.00;;;-1.46;55.93
23417;BME280;11881;42.432;25.632;2024-01-10T05:08:31;100562.44;;;-1.51;54.28
23417;BME280;11881;42.432;25.632;2024-01-10T05:10:57;100555.19;;;-1.37;57.34
23417;BME280;11881;42.432;25.632;2024-01-10T05:13:22;100562.72;;;-1.23;54.49
23417;BME280;11881;42.432;25.632;2024-01-10T05:15:48;100564.91;;;-1.44;55.90
23417;BME280;11881;42.432;25.632;2024-01-10T05:18:15;100574.78;;;-1.16;55.20
23417;BME280;11881;42.432;25.632;2024-01-10T05:20:41;100572.28;;;-1.22;55.02
23417;BME280;11881;42.432;25.632;2024-01-10T05:23:06;100574.78;;;-1.16;57.29
23417;BME280;11881;42.432;25.632;2024-01-10T05:25:31;100586.00;;;-1.11;55.69
23417;BME280;11881;42.432;25.632;2024-01-10T05:27:57;100584.63;;;-1.27;55.23
23417;BME280;11881;42.432;25.632;2024-01-10T05:30:23;100586.47;;;-1.34;56.41
23417;BME280;11881;42.432;25.632;2024-01-10T05:32:49;100601.69;;;-1.53;56.58
23417;BME280;11881;42.432;25.632;2024-01-10T05:35:15;100594.06;;;-1.64;55.69
23417;BME280;11881;42.432;25.632;2024-01-10T05:37:40;100611.47;;;-1.64;57.83
23417;BME280;11881;42.432;25.632;2024-01-10T05:40:06;100607.13;;;-1.64;57.00
23417;BME280;11881;42.432;25.632;2024-01-10T05:42:32;100618.94;;;-1.44;57.38
23417;BME280;11881;42.432;25.632;2024-01-10T05:44:59;100611.94;;;-1.42;56.31
23417;BME280;11881;42.432;25.632;2024-01-10T05:47:24;100621.56;;;-1.46;56.31
23417;BME280;11881;42.432;25.632;2024-01-10T05:49:51;100616.66;;;-1.61;57.46
23417;BME280;11881;42.432;25.632;2024-01-10T05:52:18;100616.75;;;-1.66;57.86
23417;BME280;11881;42.432;25.632;2024-01-10T05:54:44;100625.13;;;-1.48;57.25
23417;BME280;11881;42.432;25.632;2024-01-10T05:57:10;100622.59;;;-1.53;55.55
23417;BME280;11881;42.432;25.632;2024-01-10T05:59:35;100618.66;;;-1.30;55.43
23417;BME280;11881;42.432;25.632;2024-01-10T06:02:02;100617.00;;;-1.35;57.00
23417;BME280;11881;42.432;25.632;2024-01-10T06:04:28;100629.16;;;-1.34;56.90
23417;BME280;11881;42.432;25.632;2024-01-10T06:06:57;100632.84;;;-1.42;56.87
23417;BME280;11881;42.432;25.632;2024-01-10T06:09:23;100637.97;;;-1.38;56.13
23417;BME280;11881;42.432;25.632;2024-01-10T06:11:49;100638.09;;;-1.45;57.22
23417;BME280;11881;42.432;25.632;2024-01-10T06:14:14;100639.53;;;-1.27;56.81
23417;BME280;11881;42.432;25.632;2024-01-10T06:16:40;100639.25;;;-1.58;56.24
23417;BME280;11881;42.432;25.632;2024-01-10T06:19:06;100642.41;;;-1.41;57.51
23417;BME280;11881;42.432;25.632;2024-01-10T06:21:31;100645.44;;;-1.64;57.74
23417;BME280;11881;42.432;25.632;2024-01-10T06:23:57;100657.19;;;-1.39;57.96
23417;BME280;11881;42.432;25.632;2024-01-10T06:26:22;100655.22;;;-1.29;57.81
23417;BME280;11881;42.432;25.632;2024-01-10T06:28:48;100657.97;;;-1.35;56.94
23417;BME280;11881;42.432;25.632;2024-01-10T06:31:13;100668.38;;;-1.34;58.91
23417;BME280;11881;42.432;25.632;2024-01-10T06:33:39;100673.31;;;-1.18;56.69
23417;BME280;11881;42.432;25.632;2024-01-10T06:36:05;100679.38;;;-1.16;57.71
23417;BME280;11881;42.432;25.632;2024-01-10T06:38:30;100675.59;;;-1.46;57.22
23417;BME280;11881;42.432;25.632;2024-01-10T06:40:56;100680.09;;;-1.53;57.96
23417;BME280;11881;42.432;25.632;2024-01-10T06:43:21;100680.38;;;-1.23;58.22
23417;BME280;11881;42.432;25.632;2024-01-10T06:45:47;100691.91;;;-1.32;58.19
23417;BME280;11881;42.432;25.632;2024-01-10T06:48:13;100681.56;;;-1.40;60.00
23417;BME280;11881;42.432;25.632;2024-01-10T06:50:38;100693.09;;;-1.50;59.61
23417;BME280;11881;42.432;25.632;2024-01-10T06:53:04;100693.19;;;-1.54;61.07
23417;BME280;11881;42.432;25.632;2024-01-10T06:55:30;100694.56;;;-1.35;60.10
23417;BME280;11881;42.432;25.632;2024-01-10T06:57:55;100705.63;;;-1.22;60.92
23417;BME280;11881;42.432;25.632;2024-01-10T07:00:21;100692.56;;;-1.21;60.77
23417;BME280;11881;42.432;25.632;2024-01-10T07:02:49;100699.53;;;-1.23;61.65
23417;BME280;11881;42.432;25.632;2024-01-10T07:05:15;100696.97;;;-1.24;59.56
23417;BME280;11881;42.432;25.632;2024-01-10T07:07:41;100703.88;;;-1.20;59.55
23417;BME280;11881;42.432;25.632;2024-01-10T07:10:07;100707.13;;;-1.09;58.56
23417;BME280;11881;42.432;25.632;2024-01-10T07:12:33;100700.31;;;-1.18;57.91
23417;BME280;11881;42.432;25.632;2024-01-10T07:15:00;100709.19;;;-1.25;58.25
23417;BME280;11881;42.432;25.632;2024-01-10T07:17:25;100705.50;;;-1.16;58.20
23417;BME280;11881;42.432;25.632;2024-01-10T07:19:51;100706.41;;;-1.16;57.70
23417;BME280;11881;42.432;25.632;2024-01-10T07:22:16;100710.41;;;-0.99;58.80
23417;BME280;11881;42.432;25.632;2024-01-10T07:24:43;100706.81;;;-0.92;59.39
23417;BME280;11881;42.432;25.632;2024-01-10T07:27:09;100715.44;;;-0.89;58.21
23417;BME280;11881;42.432;25.632;2024-01-10T07:29:35;100714.72;;;-0.97;57.29
23417;BME280;11881;42.432;25.632;2024-01-10T07:32:00;100716.50;;;-0.97;56.78
23417;BME280;11881;42.432;25.632;2024-01-10T07:34:26;100714.72;;;-0.97;56.63
23417;BME280;11881;42.432;25.632;2024-01-10T07:36:51;100718.66;;;-1.19;58.08
23417;BME280;11881;42.432;25.632;2024-01-10T07:39:19;100717.47;;;-1.03;57.56
23417;BME280;11881;42.432;25.632;2024-01-10T07:41:45;100718.22;;;-0.96;57.25
23417;BME280;11881;42.432;25.632;2024-01-10T07:44:10;100711.78;;;-0.82;56.77
23417;BME280;11881;42.432;25.632;2024-01-10T07:46:36;100720.41;;;-0.75;59.43
23417;BME280;11881;42.432;25.632;2024-01-10T07:49:05;100717.44;;;-0.60;59.11
23417;BME280;11881;42.432;25.632;2024-01-10T07:51:31;100707.00;;;-0.61;57.47
23417;BME280;11881;42.432;25.632;2024-01-10T07:53:58;100722.53;;;-0.54;55.83
23417;BME280;11881;42.432;25.632;2024-01-10T07:56:24;100724.50;;;-0.65;56.38
23417;BME280;11881;42.432;25.632;2024-01-10T07:58:50;100733.09;;;-0.57;57.88
23417;BME280;11881;42.432;25.632;2024-01-10T08:01:16;100727.75;;;-0.52;57.07
23417;BME280;11881;42.432;25.632;2024-01-10T08:03:42;100728.38;;;-0.42;57.22
23417;BME280;11881;42.432;25.632;2024-01-10T08:06:08;100736.19;;;-0.41;57.47
23417;BME280;11881;42.432;25.632;2024-01-10T08:08:33;100730.28;;;-0.49;57.41
23417;BME280;11881;42.432;25.632;2024-01-10T08:10:59;100727.63;;;-0.47;56.88
23417;BME280;11881;42.432;25.632;2024-01-10T08:13:24;100726.50;;;-0.36;57.71
23417;BME280;11881;42.432;25.632;2024-01-10T08:15:50;100736.16;;;-0.38;57.48
23417;BME280;11881;42.432;25.632;2024-01-10T08:18:16;100723.72;;;-0.30;57.72
23417;BME280;11881;42.432;25.632;2024-01-10T08:20:41;100730.50;;;-0.19;56.91
23417;BME280;11881;42.432;25.632;2024-01-10T08:23:07;100736.91;;;-0.33;57.36
23417;BME280;11881;42.432;25.632;2024-01-10T08:25:33;100732.97;;;-0.13;56.60
23417;BME280;11881;42.432;25.632;2024-01-10T08:27:59;100729.13;;;0.02;56.37
23417;BME280;11881;42.432;25.632;2024-01-10T08:30:24;100725.09;;;0.22;55.82
23417;BME280;11881;42.432;25.632;2024-01-10T08:32:50;100735.81;;;-0.24;56.91
23417;BME280;11881;42.432;25.632;2024-01-10T08:35:15;100724.44;;;0.14;57.79
23417;BME280;11881;42.432;25.632;2024-01-10T08:37:41;100737.91;;;0.35;55.99
23417;BME280;11881;42.432;25.632;2024-01-10T08:40:11;100741.31;;;1.03;55.25
23417;BME280;11881;42.432;25.632;2024-01-10T08:42:40;100734.47;;;0.98;54.36
23417;BME280;11881;42.432;25.632;2024-01-10T08:45:06;100735.31;;;1.00;53.50
23417;BME280;11881;42.432;25.632;2024-01-10T08:47:35;100729.75;;;0.79;54.83
23417;BME280;11881;42.432;25.632;2024-01-10T08:50:02;100728.75;;;0.51;56.07
23417;BME280;11881;42.432;25.632;2024-01-10T08:52:30;100717.06;;;0.64;56.44
23417;BME280;11881;42.432;25.632;2024-01-10T08:54:56;100713.56;;;0.64;56.71
23417;BME280;11881;42.432;25.632;2024-01-10T08:57:21;100716.09;;;0.99;56.18
23417;BME280;11881;42.432;25.632;2024-01-10T08:59:47;100716.28;;;0.92;56.62
23417;BME280;11881;42.432;25.632;2024-01-10T09:02:12;100708.78;;;1.09;56.41
23417;BME280;11881;42.432;25.632;2024-01-10T09:04:37;100706.97;;;1.13;54.80
23417;BME280;11881;42.432;25.632;2024-01-10T09:07:03;100711.03;;;1.23;55.53
23417;BME280;11881;42.432;25.632;2024-01-10T09:09:29;100706.81;;;0.86;55.87
23417;BME280;11881;42.432;25.632;2024-01-10T09:11:54;100691.06;;;0.86;56.30
23417;BME280;11881;42.432;25.632;2024-01-10T09:14:19;100705.25;;;1.12;55.97
23417;BME280;11881;42.432;25.632;2024-01-10T09:16:45;100696.31;;;0.88;56.61
23417;BME280;11881;42.432;25.632;2024-01-10T09:19:11;100696.88;;;0.97;55.40
23417;BME280;11881;42.432;25.632;2024-01-10T09:21:36;100687.06;;;1.05;55.39
23417;BME280;11881;42.432;25.632;2024-01-10T09:24:02;100689.81;;;0.70;56.81
23417;BME280;11881;42.432;25.632;2024-01-10T09:26:30;100691.22;;;0.82;56.65
23417;BME280;11881;42.432;25.632;2024-01-10T09:28:56;100685.84;;;0.86;58.32
23417;BME280;11881;42.432;25.632;2024-01-10T09:31:21;100690.84;;;0.64;56.72
23417;BME280;11881;42.432;25.632;2024-01-10T09:33:47;100682.34;;;0.55;57.03
23417;BME280;11881;42.432;25.632;2024-01-10T09:36:12;100676.88;;;0.62;57.46
23417;BME280;11881;42.432;25.632;2024-01-10T09:38:39;100666.91;;;0.75;57.81
23417;BME280;11881;42.432;25.632;2024-01-10T09:41:05;100661.13;;;0.95;57.63
23417;BME280;11881;42.432;25.632;2024-01-10T09:43:31;100672.53;;;0.94;56.17
23417;BME280;11881;42.432;25.632;2024-01-10T09:46:00;100668.81;;;1.01;58.58
23417;BME280;11881;42.432;25.632;2024-01-10T09:48:26;100668.47;;;0.82;57.65
23417;BME280;11881;42.432;25.632;2024-01-10T09:50:52;100670.47;;;1.03;58.27
23417;BME280;11881;42.432;25.632;2024-01-10T09:53:25;100667.00;;;1.03;56.98
23417;BME280;11881;42.432;25.632;2024-01-10T09:55:52;100664.97;;;1.13;57.80
23417;BME280;11881;42.432;25.632;2024-01-10T09:58:23;100658.13;;;1.07;58.38
23417;BME280;11881;42.432;25.632;2024-01-10T10:00:49;100655.63;;;1.02;58.26
23417;BME280;11881;42.432;25.632;2024-01-10T10:03:15;100652.44;;;1.22;57.45
23417;BME280;11881;42.432;25.632;2024-01-10T10:05:43;100645.25;;;1.27;57.57
23417;BME280;11881;42.432;25.632;2024-01-10T10:08:11;100644.94;;;1.38;57.78
23417;BME280;11881;42.432;25.632;2024-01-10T10:10:37;100644.56;;;1.22;57.86
23417;BME280;11881;42.432;25.632;2024-01-10T10:13:10;100638.59;;;1.45;58.45
23417;BME280;11881;42.432;25.632;2024-01-10T10:15:40;100629.38;;;1.32;56.80
23417;BME280;11881;42.432;25.632;2024-01-10T10:18:06;100625.22;;;1.53;57.22
23417;BME280;11881;42.432;25.632;2024-01-10T10:20:31;100633.84;;;1.56;57.33
23417;BME280;11881;42.432;25.632;2024-01-10T10:23:05;100627.53;;;1.62;55.20
23417;BME280;11881;42.432;25.632;2024-01-10T10:25:33;100611.38;;;2.01;57.35
23417;BME280;11881;42.432;25.632;2024-01-10T10:28:01;100613.56;;;2.13;55.63
23417;BME280;11881;42.432;25.632;2024-01-10T10:30:31;100615.91;;;2.22;55.78
23417;BME280;11881;42.432;25.632;2024-01-10T10:32:57;100605.44;;;2.46;55.19
23417;BME280;11881;42.432;25.632;2024-01-10T10:35:23;100608.66;;;2.29;54.08
23417;BME280;11881;42.432;25.632;2024-01-10T10:37:50;100606.19;;;2.24;55.37
23417;BME280;11881;42.432;25.632;2024-01-10T10:40:16;100589.25;;;2.31;56.53
23417;BME280;11881;42.432;25.632;2024-01-10T10:42:47;100595.94;;;2.65;57.09
23417;BME280;11881;42.432;25.632;2024-01-10T10:45:17;100593.66;;;2.56;55.22
23417;BME280;11881;42.432;25.632;2024-01-10T10:47:44;100598.56;;;2.65;54.62
23417;BME280;11881;42.432;25.632;2024-01-10T10:50:22;100587.00;;;2.46;53.16
23417;BME280;11881;42.432;25.632;2024-01-10T10:52:49;100583.94;;;2.81;54.06
23417;BME280;11881;42.432;25.632;2024-01-10T10:55:16;100591.13;;;2.76;53.91
23417;BME280;11881;42.432;25.632;2024-01-10T10:57:45;100587.78;;;2.96;55.75
23417;BME280;11881;42.432;25.632;2024-01-10T11:00:16;100583.97;;;3.03;55.42
23417;BME280;11881;42.432;25.632;2024-01-10T11:02:42;100573.56;;;3.00;55.64
23417;BME280;11881;42.432;25.632;2024-01-10T11:05:11;100583.81;;;3.08;56.30
23417;BME280;11881;42.432;25.632;2024-01-10T11:07:40;100578.31;;;3.14;57.14
23417;BME280;11881;42.432;25.632;2024-01-10T11:10:13;100576.25;;;2.99;54.32
23417;BME280;11881;42.432;25.632;2024-01-10T11:18:40;100569.31;;;3.19;55.50
23417;BME280;11881;42.432;25.632;2024-01-10T11:21:18;100563.59;;;3.30;54.73
23417;BME280;11881;42.432;25.632;2024-01-10T11:23:54;100565.13;;;3.14;55.00
23417;BME280;11881;42.432;25.632;2024-01-10T11:26:21;100560.91;;;3.10;53.94
23417;BME280;11881;42.432;25.632;2024-01-10T11:28:46;100555.03;;;3.25;55.01
23417;BME280;11881;42.432;25.632;2024-01-10T11:31:13;100551.50;;;3.46;54.01
23417;BME280;11881;42.432;25.632;2024-01-10T11:33:40;100549.13;;;3.40;51.68
23417;BME280;11881;42.432;25.632;2024-01-10T11:36:12;100545.66;;;3.18;52.83
23417;BME280;11881;42.432;25.632;2024-01-10T11:38:41;100537.06;;;3.13;52.05
23417;BME280;11881;42.432;25.632;2024-01-10T11:41:06;100537.88;;;3.15;51.68
23417;BME280;11881;42.432;25.632;2024-01-10T11:43:34;100539.75;;;3.11;50.84
23417;BME280;11881;42.432;25.632;2024-01-10T11:46:02;100535.25;;;3.15;51.34
23417;BME280;11881;42.432;25.632;2024-01-10T11:48:31;100528.63;;;3.27;50.46
23417;BME280;11881;42.432;25.632;2024-01-10T11:50:57;100519.69;;;3.09;52.18
23417;BME280;11881;42.432;25.632;2024-01-10T11:53:43;100530.09;;;3.34;51.16
23417;BME280;11881;42.432;25.632;2024-01-10T11:56:15;100520.56;;;3.31;51.97
23417;BME280;11881;42.432;25.632;2024-01-10T11:59:02;100513.06;;;3.42;51.91
23417;BME280;11881;42.432;25.632;2024-01-10T12:01:29;100513.97;;;3.41;51.54
23417;BME280;11881;42.432;25.632;2024-01-10T12:03:55;100527.88;;;3.23;51.89
23417;BME280;11881;42.432;25.632;2024-01-10T12:06:21;100526.19;;;3.22;51.75
23417;BME280;11881;42.432;25.632;2024-01-10T12:08:48;100535.72;;;3.25;51.20
23417;BME280;11881;42.432;25.632;2024-01-10T12:11:14;100519.88;;;3.26;53.33
23417;BME280;11881;42.432;25.632;2024-01-10T12:13:41;100521.94;;;3.18;50.65
23417;BME280;11881;42.432;25.632;2024-01-10T12:16:07;100521.34;;;3.11;50.85
23417;BME280;11881;42.432;25.632;2024-01-10T12:18:32;100514.00;;;3.19;52.45
23417;BME280;11881;42.432;25.632;2024-01-10T12:20:59;100514.47;;;3.07;51.92
23417;BME280;11881;42.432;25.632;2024-01-10T12:23:24;100515.81;;;3.17;53.40
23417;BME280;11881;42.432;25.632;2024-01-10T12:25:56;100516.63;;;2.98;53.00
23417;BME280;11881;42.432;25.632;2024-01-10T12:28:21;100509.91;;;2.90;52.94
23417;BME280;11881;42.432;25.632;2024-01-10T12:30:47;100510.38;;;3.22;53.50
23417;BME280;11881;42.432;25.632;2024-01-10T12:33:13;100509.03;;;3.12;52.01
23417;BME280;11881;42.432;25.632;2024-01-10T12:35:38;100506.81;;;3.01;52.44
23417;BME280;11881;42.432;25.632;2024-01-10T12:38:10;100500.94;;;2.94;53.46
23417;BME280;11881;42.432;25.632;2024-01-10T12:40:36;100508.88;;;2.71;53.11
23417;BME280;11881;42.432;25.632;2024-01-10T12:43:05;100509.72;;;2.72;52.01
23417;BME280;11881;42.432;25.632;2024-01-10T12:45:33;100509.41;;;2.57;52.09